createdAt,value
2019-02-02T00:00:18.819Z,38.23
2019-02-02T00:02:22.839Z,36.83
2019-02-02T00:04:25.999Z,36.30
2019-02-02T00:06:28.877Z,33.20
2019-02-02T00:08:31.850Z,37.60
2019-02-02T00:10:34.843Z,40.80
2019-02-02T00:12:37.768Z,34.13
2019-02-02T00:14:41.622Z,38.33
2019-02-02T00:16:44.571Z,36.77
2019-02-02T00:18:48.484Z,39.67
2019-02-02T00:20:51.477Z,36.00
2019-02-02T00:22:56.001Z,39.90
2019-02-02T00:24:58.989Z,40.13
2019-02-02T00:27:04.004Z,33.97
2019-02-02T00:29:06.784Z,44.37
2019-02-02T00:31:09.702Z,41.60
2019-02-02T00:33:12.627Z,38.47
2019-02-02T00:35:16.618Z,40.03
2019-02-02T00:37:21.603Z,40.90
2019-02-02T00:39:24.320Z,41.13
2019-02-02T00:41:27.278Z,41.37
2019-02-02T00:43:30.246Z,40.63
2019-02-02T00:45:33.131Z,39.03
2019-02-02T00:47:36.083Z,36.77
2019-02-02T00:49:39.005Z,38.53
2019-02-02T00:51:41.942Z,42.13
2019-02-02T00:53:44.869Z,40.83
2019-02-02T00:55:47.849Z,39.37
2019-02-02T00:57:54.162Z,37.87
2019-02-02T00:59:55.525Z,41.27
2019-02-02T01:01:58.423Z,36.43
2019-02-02T01:04:03.371Z,44.27
2019-02-02T01:06:06.349Z,39.93
2019-02-02T01:08:09.401Z,42.93
2019-02-02T01:10:16.262Z,42.80
2019-02-02T01:12:19.166Z,40.17
2019-02-02T01:14:22.053Z,37.63
2019-02-02T01:16:25.072Z,40.80
2019-02-02T01:18:28.143Z,46.07
2019-02-02T01:20:32.107Z,44.30
2019-02-02T01:22:36.141Z,39.93
2019-02-02T01:24:39.021Z,43.77
2019-02-02T01:26:41.950Z,42.70
2019-02-02T01:28:44.794Z,44.47
2019-02-02T01:30:48.748Z,41.23
2019-02-02T01:32:51.573Z,41.73
2019-02-02T01:34:54.491Z,41.83
2019-02-02T01:36:58.345Z,40.53
2019-02-02T01:39:04.630Z,37.93
2019-02-02T01:41:07.442Z,40.90
2019-02-02T01:43:12.438Z,43.60
2019-02-02T01:45:19.025Z,40.43
2019-02-02T01:47:22.204Z,49.90
2019-02-02T01:49:25.070Z,40.33
2019-02-02T01:51:27.949Z,40.30
2019-02-02T01:53:31.033Z,40.53
2019-02-02T01:55:33.910Z,42.60
2019-02-02T01:57:37.149Z,43.90
2019-02-02T01:59:39.967Z,40.87
2019-02-02T02:01:42.827Z,38.30
2019-02-02T02:03:45.780Z,37.03
2019-02-02T02:05:48.634Z,40.83
2019-02-02T02:07:51.618Z,38.77
2019-02-02T02:09:55.597Z,40.73
2019-02-02T02:11:58.426Z,37.20
2019-02-02T02:14:01.369Z,49.47
2019-02-02T02:16:05.894Z,40.90
2019-02-02T02:18:08.933Z,41.23
2019-02-02T02:20:12.379Z,45.57
2019-02-02T02:22:15.363Z,41.00
2019-02-02T02:24:18.380Z,40.50
2019-02-02T02:26:21.301Z,24.07
2019-02-02T02:28:28.206Z,35.77
2019-02-02T02:30:28.828Z,40.20
2019-02-02T02:32:31.691Z,41.00
2019-02-02T02:34:34.629Z,41.40
2019-02-02T02:36:38.600Z,38.80
2019-02-02T02:38:42.581Z,39.57
2019-02-02T02:40:45.485Z,42.27
2019-02-02T02:42:48.428Z,40.43
2019-02-02T02:44:51.335Z,43.83
2019-02-02T02:46:54.130Z,41.60
2019-02-02T02:48:57.192Z,38.13
2019-02-02T02:51:00.034Z,41.53
2019-02-02T02:53:02.962Z,42.33
2019-02-02T02:55:07.180Z,39.90
2019-02-02T02:57:09.965Z,40.30
2019-02-02T02:59:13.005Z,38.77
2019-02-02T03:03:27.450Z,48.10
2019-02-02T03:05:30.325Z,42.80
2019-02-02T03:07:33.157Z,43.97
2019-02-02T03:09:36.004Z,42.80
2019-02-02T03:11:39.869Z,41.00
2019-02-02T03:13:42.777Z,41.03
2019-02-02T03:15:45.849Z,43.57
2019-02-02T03:17:48.800Z,40.57
2019-02-02T03:19:51.740Z,43.43
2019-02-02T03:21:54.968Z,43.40
2019-02-02T03:23:57.826Z,43.60
2019-02-02T03:26:00.638Z,38.23
2019-02-02T03:28:03.606Z,41.93
2019-02-02T03:30:08.106Z,45.10
2019-02-02T03:32:10.964Z,42.53
2019-02-02T03:34:13.854Z,45.50
2019-02-02T03:36:16.781Z,43.47
2019-02-02T03:38:19.603Z,38.47
2019-02-02T03:40:22.458Z,39.00
2019-02-02T03:42:25.349Z,41.27
2019-02-02T03:44:28.361Z,39.63
2019-02-02T03:46:31.209Z,41.00
2019-02-02T03:48:34.120Z,38.70
2019-02-02T03:50:38.020Z,39.13
2019-02-02T03:52:40.910Z,40.97
2019-02-02T03:54:43.852Z,41.77
2019-02-02T03:56:46.638Z,48.13
2019-02-02T03:58:49.374Z,40.70
2019-02-02T04:00:52.577Z,49.13
2019-02-02T04:02:55.413Z,39.53
2019-02-02T04:05:01.065Z,42.40
2019-02-02T04:07:03.921Z,41.30
2019-02-02T04:09:07.463Z,48.77
2019-02-02T04:11:10.340Z,47.97
2019-02-02T04:13:13.267Z,42.37
2019-02-02T04:15:19.110Z,40.87
2019-02-02T04:17:21.885Z,40.80
2019-02-02T04:19:24.755Z,38.47
2019-02-02T04:21:28.800Z,44.37
2019-02-02T04:23:31.925Z,41.03
2019-02-02T04:25:34.925Z,44.07
2019-02-02T04:27:37.805Z,38.83
2019-02-02T04:29:40.802Z,36.23
2019-02-02T04:31:46.319Z,40.80
2019-02-02T04:33:49.256Z,41.27
2019-02-02T04:35:52.107Z,43.20
2019-02-02T04:37:54.943Z,43.20
2019-02-02T04:39:57.787Z,41.60
2019-02-02T04:42:00.653Z,52.80
2019-02-02T04:44:03.605Z,43.80
2019-02-02T04:46:06.600Z,39.57
2019-02-02T04:48:09.533Z,41.63
2019-02-02T04:50:13.795Z,40.13
2019-02-02T04:52:16.753Z,45.10
2019-02-02T04:54:19.765Z,41.73
2019-02-02T04:56:22.771Z,46.23
2019-02-02T04:58:25.629Z,44.90
2019-02-02T05:00:28.673Z,39.80
2019-02-02T05:02:31.465Z,47.33
2019-02-02T05:04:34.406Z,42.73
2019-02-02T05:06:37.287Z,46.43
2019-02-02T05:08:41.803Z,43.60
2019-02-02T05:10:44.810Z,45.93
2019-02-02T05:12:47.915Z,48.77
2019-02-02T05:14:50.787Z,51.83
2019-02-02T05:16:53.598Z,44.80
2019-02-02T05:18:56.521Z,48.73
2019-02-02T05:20:59.477Z,41.07
2019-02-02T05:23:02.544Z,39.90
2019-02-02T05:25:05.997Z,41.73
2019-02-02T05:27:08.756Z,42.53
2019-02-02T05:29:11.565Z,46.30
2019-02-02T05:31:14.437Z,42.53
2019-02-02T05:33:17.443Z,38.53
2019-02-02T05:35:20.184Z,42.70
2019-02-02T05:37:23.085Z,43.80
2019-02-02T05:39:25.931Z,41.77
2019-02-02T05:41:28.794Z,46.17
2019-02-02T05:43:31.758Z,47.13
2019-02-02T05:45:34.687Z,46.03
2019-02-02T05:47:37.613Z,41.43
2019-02-02T05:49:40.462Z,48.90
2019-02-02T05:51:43.419Z,47.77
2019-02-02T05:53:46.476Z,43.20
2019-02-02T05:55:49.793Z,46.27
2019-02-02T05:57:52.940Z,40.90
2019-02-02T05:59:55.815Z,44.40
2019-02-02T06:01:58.693Z,41.10
2019-02-02T06:04:01.504Z,42.20
2019-02-02T06:06:05.370Z,44.30
2019-02-02T06:08:08.309Z,41.87
2019-02-02T06:10:12.668Z,40.87
2019-02-02T06:12:17.246Z,41.23
2019-02-02T06:14:20.271Z,42.67
2019-02-02T06:16:24.336Z,47.37
2019-02-02T06:18:28.509Z,40.37
2019-02-02T06:20:31.589Z,44.67
2019-02-02T06:22:34.359Z,44.13
2019-02-02T06:24:37.213Z,44.40
2019-02-02T06:26:40.161Z,43.30
2019-02-02T06:28:43.188Z,40.53
2019-02-02T06:30:45.994Z,44.37
2019-02-02T06:32:48.903Z,43.40
2019-02-02T06:34:51.807Z,53.47
2019-02-02T06:36:54.554Z,43.67
2019-02-02T06:38:57.495Z,40.93
2019-02-02T06:41:00.367Z,44.87
2019-02-02T06:43:04.470Z,44.17
2019-02-02T06:45:10.417Z,40.03
2019-02-02T06:47:14.420Z,41.13
2019-02-02T06:49:17.263Z,45.03
2019-02-02T06:51:21.317Z,44.43
2019-02-02T06:53:25.939Z,50.07
2019-02-02T06:55:29.895Z,43.27
2019-02-02T06:57:32.756Z,47.23
2019-02-02T06:59:35.687Z,46.93
2019-02-02T07:01:38.516Z,48.40
2019-02-02T07:03:47.657Z,46.07
2019-02-02T07:05:46.687Z,48.00
2019-02-02T07:07:49.685Z,46.00
2019-02-02T07:09:52.697Z,52.47
2019-02-02T07:11:55.481Z,43.33
2019-02-02T07:13:58.453Z,52.00
2019-02-02T07:16:01.319Z,43.37
2019-02-02T07:18:04.279Z,46.87
2019-02-02T07:20:08.663Z,50.07
2019-02-02T07:22:11.627Z,43.90
2019-02-02T07:24:14.489Z,48.23
2019-02-02T07:26:17.338Z,48.00
2019-02-02T07:28:20.363Z,52.63
2019-02-02T07:30:28.589Z,51.57
2019-02-02T07:32:27.903Z,46.23
2019-02-02T07:34:30.994Z,50.10
2019-02-02T07:36:33.904Z,44.67
2019-02-02T07:38:36.818Z,42.27
2019-02-02T07:40:42.408Z,51.67
2019-02-02T07:42:45.359Z,50.90
2019-02-02T07:44:49.402Z,43.23
2019-02-02T07:46:52.291Z,47.57
2019-02-02T07:48:55.348Z,47.77
2019-02-02T07:50:58.208Z,48.27
2019-02-02T07:53:01.075Z,40.10
2019-02-02T07:55:04.124Z,47.00
2019-02-02T07:57:07.140Z,41.20
2019-02-02T07:59:10.274Z,43.73
2019-02-02T08:01:13.264Z,45.77
2019-02-02T08:03:16.130Z,45.53
2019-02-02T08:05:18.974Z,49.23
2019-02-02T08:07:21.872Z,47.27
2019-02-02T08:09:24.738Z,44.30
2019-02-02T08:11:30.728Z,45.70
2019-02-02T08:13:33.599Z,46.77
2019-02-02T08:15:36.596Z,49.67
2019-02-02T08:17:39.339Z,47.57
2019-02-02T08:19:42.303Z,45.13
2019-02-02T08:21:45.271Z,45.80
2019-02-02T08:23:48.038Z,45.60
2019-02-02T08:25:51.038Z,48.37
2019-02-02T08:27:53.902Z,52.63
2019-02-02T08:29:56.785Z,45.17
2019-02-02T08:31:59.711Z,50.63
2019-02-02T08:34:02.708Z,46.90
2019-02-02T08:36:08.316Z,48.13
2019-02-02T08:38:12.256Z,46.43
2019-02-02T08:40:15.565Z,47.13
2019-02-02T08:42:18.557Z,42.33
2019-02-02T08:44:22.425Z,50.30
2019-02-02T08:46:26.603Z,45.07
2019-02-02T08:48:32.122Z,51.93
2019-02-02T08:50:37.712Z,50.17
2019-02-02T08:52:40.694Z,47.77
2019-02-02T08:54:43.621Z,57.17
2019-02-02T08:56:48.498Z,50.43
2019-02-02T08:58:51.515Z,49.93
2019-02-02T09:01:04.332Z,45.17
2019-02-02T09:03:02.193Z,52.97
2019-02-02T09:05:05.716Z,42.57
2019-02-02T09:07:08.705Z,47.50
2019-02-02T09:09:11.624Z,47.60
2019-02-02T09:11:14.680Z,51.17
2019-02-02T09:13:17.708Z,54.50
2019-02-02T09:15:21.693Z,46.37
2019-02-02T09:17:24.595Z,53.03
2019-02-02T09:19:30.665Z,51.03
2019-02-02T09:21:33.533Z,47.90
2019-02-02T09:23:36.355Z,43.37
2019-02-02T09:25:39.492Z,46.37
2019-02-02T09:27:42.431Z,49.87
2019-02-02T09:29:47.819Z,50.47
2019-02-02T09:31:52.162Z,48.37
2019-02-02T09:33:55.041Z,49.10
2019-02-02T09:35:57.776Z,47.07
2019-02-02T09:38:00.796Z,48.50
2019-02-02T09:40:04.699Z,46.60
2019-02-02T09:42:09.994Z,46.20
2019-02-02T09:44:13.025Z,47.33
2019-02-02T09:46:16.059Z,45.43
2019-02-02T09:48:19.130Z,46.90
2019-02-02T09:50:23.252Z,59.33
2019-02-02T09:52:26.297Z,55.13
2019-02-02T09:54:29.282Z,54.05
2019-02-02T09:56:32.307Z,46.17
2019-02-02T09:58:35.484Z,52.27
2019-02-02T10:00:38.604Z,47.13
2019-02-02T10:02:41.592Z,48.80
2019-02-02T10:04:44.817Z,46.60
2019-02-02T10:06:47.773Z,44.57
2019-02-02T10:08:50.809Z,48.53
2019-02-02T10:10:53.815Z,47.70
2019-02-02T10:12:57.073Z,45.90
2019-02-02T10:15:00.099Z,49.77
2019-02-02T10:17:03.310Z,47.53
2019-02-02T10:19:06.396Z,50.63
2019-02-02T10:21:09.407Z,42.70
2019-02-02T10:23:12.217Z,46.80
2019-02-02T10:25:17.359Z,48.43
2019-02-02T10:27:20.476Z,47.87
2019-02-02T10:29:23.334Z,44.13
2019-02-02T10:31:26.293Z,47.07
2019-02-02T10:33:29.151Z,50.33
2019-02-02T10:35:32.223Z,43.47
2019-02-02T10:37:36.218Z,45.70
2019-02-02T10:39:39.123Z,49.27
2019-02-02T10:41:42.127Z,51.10
2019-02-02T10:43:45.011Z,49.50
2019-02-02T10:45:47.804Z,43.00
2019-02-02T10:47:50.591Z,45.93
2019-02-02T10:49:54.091Z,42.73
2019-02-02T10:51:58.016Z,44.17
2019-02-02T10:54:02.008Z,46.67
2019-02-02T10:56:04.993Z,41.70
2019-02-02T10:58:07.895Z,41.97
2019-02-02T11:00:14.286Z,42.10
2019-02-02T11:02:19.469Z,35.93
2019-02-02T11:04:22.753Z,45.07
2019-02-02T11:06:26.607Z,44.57
2019-02-02T11:08:29.484Z,44.93
2019-02-02T11:10:32.660Z,45.67
2019-02-02T11:12:35.475Z,43.90
2019-02-02T11:14:38.444Z,45.33
2019-02-02T11:16:41.522Z,48.20
2019-02-02T11:18:44.744Z,41.33
2019-02-02T11:20:48.597Z,43.60
2019-02-02T11:22:51.574Z,39.23
2019-02-02T11:24:55.620Z,39.43
2019-02-02T11:26:58.604Z,45.77
2019-02-02T11:29:02.211Z,40.67
2019-02-02T11:31:05.326Z,46.63
2019-02-02T11:33:08.225Z,38.30
2019-02-02T11:35:12.277Z,41.67
2019-02-02T11:37:15.034Z,44.00
2019-02-02T11:39:17.929Z,42.23
2019-02-02T11:41:20.948Z,41.67
2019-02-02T11:43:23.987Z,42.10
2019-02-02T11:45:27.259Z,39.63
2019-02-02T11:47:30.153Z,39.70
2019-02-02T11:49:33.181Z,42.20
2019-02-02T11:51:36.204Z,44.03
2019-02-02T11:53:38.948Z,41.30
2019-02-02T11:55:42.132Z,39.50
2019-02-02T11:57:45.121Z,40.90
2019-02-02T11:59:48.046Z,38.03
2019-02-02T12:01:50.996Z,43.13
2019-02-02T12:03:56.911Z,41.77
2019-02-02T12:06:00.299Z,38.33
2019-02-02T12:08:06.563Z,42.50
2019-02-02T12:10:10.947Z,39.87
2019-02-02T12:12:14.445Z,36.17
2019-02-02T12:14:17.394Z,42.37
2019-02-02T12:16:20.312Z,39.03
2019-02-02T12:18:23.170Z,35.53
2019-02-02T12:20:26.033Z,39.07
2019-02-02T12:22:30.108Z,43.93
2019-02-02T12:24:34.961Z,41.00
2019-02-02T12:26:37.928Z,41.53
2019-02-02T12:28:41.142Z,43.37
2019-02-02T12:30:44.275Z,42.17
2019-02-02T12:32:47.231Z,40.67
2019-02-02T12:34:50.182Z,39.97
2019-02-02T12:36:53.247Z,40.73
2019-02-02T12:38:56.083Z,38.23
2019-02-02T12:40:59.726Z,42.13
2019-02-02T12:43:03.791Z,45.07
2019-02-02T12:45:10.329Z,44.47
2019-02-02T12:47:13.572Z,42.73
2019-02-02T12:49:16.281Z,38.20
2019-02-02T12:51:19.197Z,46.97
2019-02-02T12:53:22.109Z,41.47
2019-02-02T12:55:26.086Z,42.33
2019-02-02T12:57:29.144Z,41.10
2019-02-02T12:59:32.130Z,43.17
2019-02-02T13:01:35.191Z,44.17
2019-02-02T13:03:38.071Z,42.27
2019-02-02T13:05:40.962Z,43.80
2019-02-02T13:07:43.980Z,49.20
2019-02-02T13:09:49.738Z,41.33
2019-02-02T13:11:52.672Z,42.37
2019-02-02T13:13:56.521Z,41.33
2019-02-02T13:15:59.559Z,43.10
2019-02-02T13:18:02.459Z,38.17
2019-02-02T13:20:06.106Z,41.97
2019-02-02T13:22:08.938Z,44.07
2019-02-02T13:24:12.814Z,45.13
2019-02-02T13:26:15.751Z,36.93
2019-02-02T13:28:18.602Z,39.30
2019-02-02T13:30:23.878Z,44.63
2019-02-02T13:32:26.736Z,41.23
2019-02-02T13:34:29.592Z,37.80
2019-02-02T13:36:32.496Z,37.53
2019-02-02T13:38:35.448Z,32.40
2019-02-02T13:40:38.461Z,37.93
2019-02-02T13:42:50.265Z,35.33
2019-02-02T13:44:53.089Z,36.07
2019-02-02T13:46:56.064Z,33.07
2019-02-02T13:48:59.050Z,33.33
2019-02-02T13:51:01.896Z,30.53
2019-02-02T13:53:05.967Z,39.63
2019-02-02T13:55:08.916Z,39.00
2019-02-02T13:57:11.769Z,33.93
2019-02-02T13:59:14.670Z,37.37
2019-02-02T14:01:20.042Z,38.43
2019-02-02T14:03:23.029Z,33.20
2019-02-02T14:05:27.375Z,34.57
2019-02-02T14:07:30.355Z,33.93
2019-02-02T14:09:33.157Z,36.80
2019-02-02T14:11:36.063Z,35.33
2019-02-02T14:13:39.142Z,42.17
2019-02-02T14:15:42.158Z,29.83
2019-02-02T14:17:45.073Z,35.60
2019-02-02T14:19:47.955Z,31.53
2019-02-02T14:21:50.906Z,33.70
2019-02-02T14:23:54.836Z,31.20
2019-02-02T14:25:57.747Z,32.33
2019-02-02T14:28:00.856Z,34.40
2019-02-02T14:30:13.199Z,36.70
2019-02-02T14:32:16.211Z,35.40
2019-02-02T14:34:21.751Z,35.13
2019-02-02T14:36:24.652Z,31.63
2019-02-02T14:38:27.609Z,37.63
2019-02-02T14:40:30.531Z,35.83
2019-02-02T14:42:33.376Z,32.57
2019-02-02T14:44:36.128Z,31.57
2019-02-02T14:46:41.631Z,28.77
2019-02-02T14:48:44.548Z,34.17
2019-02-02T14:50:47.500Z,35.37
2019-02-02T14:52:51.012Z,34.83
2019-02-02T14:54:53.942Z,36.83
2019-02-02T14:56:56.819Z,30.20
2019-02-02T14:58:59.957Z,27.53
2019-02-02T15:01:03.986Z,37.43
2019-02-02T15:03:07.232Z,37.60
2019-02-02T15:05:10.071Z,30.07
2019-02-02T15:07:13.134Z,30.40
2019-02-02T15:09:16.056Z,34.80
2019-02-02T15:11:18.914Z,34.40
2019-02-02T15:13:21.819Z,33.47
2019-02-02T15:15:24.720Z,35.00
2019-02-02T15:17:27.677Z,28.73
2019-02-02T15:19:30.544Z,35.03
2019-02-02T15:21:33.363Z,32.13
2019-02-02T15:23:36.482Z,33.67
2019-02-02T15:25:39.352Z,37.97
2019-02-02T15:27:45.375Z,36.93
2019-02-02T15:29:48.355Z,39.97
2019-02-02T15:31:51.242Z,35.87
2019-02-02T15:33:55.197Z,35.33
2019-02-02T15:35:57.978Z,35.43
2019-02-02T15:38:00.946Z,30.90
2019-02-02T15:40:04.482Z,28.33
2019-02-02T15:42:07.289Z,35.60
2019-02-02T15:44:10.212Z,32.90
2019-02-02T15:46:13.067Z,31.57
2019-02-02T15:48:15.912Z,34.00
2019-02-02T15:50:18.728Z,32.83
2019-02-02T15:52:21.717Z,31.33
2019-02-02T15:54:24.655Z,34.77
2019-02-02T15:56:27.611Z,36.23
2019-02-02T15:58:33.815Z,32.87
2019-02-02T16:00:37.659Z,35.00
2019-02-02T16:02:40.677Z,34.70
2019-02-02T16:04:43.752Z,34.87
2019-02-02T16:06:46.605Z,32.30
2019-02-02T16:08:49.631Z,31.17
2019-02-02T16:10:52.500Z,32.17
2019-02-02T16:12:55.383Z,32.57
2019-02-02T16:14:58.345Z,36.67
2019-02-02T16:17:01.221Z,32.70
2019-02-02T16:19:05.988Z,34.80
2019-02-02T16:21:09.260Z,35.60
2019-02-02T16:23:12.275Z,34.67
2019-02-02T16:25:15.015Z,33.87
2019-02-02T16:27:17.999Z,32.30
2019-02-02T16:29:21.050Z,32.10
2019-02-02T16:31:23.992Z,32.97
2019-02-02T16:33:26.975Z,36.53
2019-02-02T16:35:29.946Z,34.53
2019-02-02T16:37:32.917Z,32.47
2019-02-02T16:39:35.663Z,35.93
2019-02-02T16:41:38.534Z,34.30
2019-02-02T16:43:43.330Z,37.50
2019-02-02T16:45:46.520Z,35.00
2019-02-02T16:47:49.504Z,33.33
2019-02-02T16:49:52.463Z,40.87
2019-02-02T16:51:55.357Z,37.70
2019-02-02T16:53:58.278Z,37.67
2019-02-02T16:56:01.671Z,38.47
2019-02-02T16:58:04.616Z,40.23
2019-02-02T17:00:11.995Z,36.77
2019-02-02T17:02:14.742Z,39.40
2019-02-02T17:04:17.689Z,37.57
2019-02-02T17:06:20.615Z,33.13
2019-02-02T17:08:23.610Z,34.43
2019-02-02T17:10:31.420Z,33.57
2019-02-02T17:12:34.282Z,37.13
2019-02-02T17:14:37.214Z,36.53
2019-02-02T17:16:40.349Z,36.17
2019-02-02T17:18:45.195Z,38.43
2019-02-02T17:20:48.127Z,45.27
2019-02-02T17:22:50.936Z,35.83
2019-02-02T17:24:53.989Z,35.53
2019-02-02T17:26:58.973Z,40.13
2019-02-02T17:29:03.541Z,37.00
2019-02-02T17:31:06.536Z,41.03
2019-02-02T17:33:11.946Z,37.50
2019-02-02T17:35:15.440Z,40.40
2019-02-02T17:37:18.299Z,34.77
2019-02-02T17:39:21.876Z,37.73
2019-02-02T17:41:24.927Z,40.03
2019-02-02T17:43:28.036Z,36.67
2019-02-02T17:45:31.265Z,35.50
2019-02-02T17:47:35.127Z,40.47
2019-02-02T17:49:38.167Z,34.87
2019-02-02T17:51:41.152Z,35.57
2019-02-02T17:53:44.200Z,39.37
2019-02-02T17:55:47.264Z,41.73
2019-02-02T17:57:50.243Z,41.17
2019-02-02T17:59:54.433Z,41.13
2019-02-02T18:02:00.554Z,39.90
2019-02-02T18:04:06.068Z,37.80
2019-02-02T18:06:08.877Z,39.53
2019-02-02T18:08:11.880Z,40.87
2019-02-02T18:10:15.159Z,41.17
2019-02-02T18:12:18.005Z,36.53
2019-02-02T18:14:20.787Z,35.27
2019-02-02T18:16:23.841Z,39.57
2019-02-02T18:18:27.093Z,35.67
2019-02-02T18:20:30.057Z,39.57
2019-02-02T18:22:32.987Z,41.97
2019-02-02T18:24:35.982Z,41.10
2019-02-02T18:26:38.873Z,49.53
2019-02-02T18:28:44.918Z,62.73
2019-02-02T18:30:47.853Z,45.83
2019-02-02T18:32:50.651Z,40.57
2019-02-02T18:34:53.731Z,50.13
2019-02-02T18:36:56.790Z,49.03
2019-02-02T18:38:59.630Z,49.67
2019-02-02T18:41:02.672Z,47.00
2019-02-02T18:43:05.594Z,45.90
2019-02-02T18:45:11.105Z,44.33
2019-02-02T18:47:14.268Z,42.57
2019-02-02T18:49:17.232Z,42.10
2019-02-02T18:51:20.201Z,36.67
2019-02-02T18:53:25.004Z,40.03
2019-02-02T18:55:36.069Z,44.33
2019-02-02T18:57:40.080Z,41.53
2019-02-02T18:59:43.054Z,45.03
2019-02-02T19:01:46.015Z,39.20
2019-02-02T19:03:49.005Z,40.83
2019-02-02T19:05:54.820Z,42.80
2019-02-02T19:07:57.709Z,36.10
2019-02-02T19:10:00.880Z,40.63
2019-02-02T19:12:03.938Z,38.27
2019-02-02T19:14:07.005Z,39.20
2019-02-02T19:16:10.159Z,42.83
2019-02-02T19:18:13.098Z,37.27
2019-02-02T19:20:17.823Z,38.93
2019-02-02T19:22:20.885Z,39.70
2019-02-02T19:24:26.163Z,40.43
2019-02-02T19:26:29.538Z,41.57
2019-02-02T19:28:39.963Z,39.53
2019-02-02T19:30:41.646Z,41.53
2019-02-02T19:32:44.756Z,38.97
2019-02-02T19:34:48.029Z,41.70
2019-02-02T19:36:51.098Z,41.93
2019-02-02T19:38:54.239Z,39.90
2019-02-02T19:40:57.866Z,42.10
2019-02-02T19:43:00.888Z,38.87
2019-02-02T19:45:04.216Z,43.03
2019-02-02T19:47:15.866Z,45.97
2019-02-02T19:49:12.362Z,44.30
2019-02-02T19:51:15.518Z,39.33
2019-02-02T19:53:19.684Z,48.47
2019-02-02T19:55:23.666Z,38.10
2019-02-02T19:57:26.853Z,42.23
2019-02-02T19:59:29.896Z,43.47
2019-02-02T20:01:33.032Z,39.87
2019-02-02T20:03:36.104Z,47.17
2019-02-02T20:05:39.350Z,47.40
2019-02-02T20:07:42.317Z,48.53
2019-02-02T20:09:45.311Z,50.63
2019-02-02T20:11:48.471Z,63.80
2019-02-02T20:13:51.603Z,54.30
2019-02-02T20:15:55.732Z,52.40
2019-02-02T20:18:09.323Z,48.80
2019-02-02T20:20:05.905Z,50.83
2019-02-02T20:22:08.955Z,46.37
2019-02-02T20:25:00.553Z,53.17
2019-02-02T20:27:03.457Z,52.93
2019-02-02T20:29:06.417Z,59.13
2019-02-02T20:31:09.492Z,61.23
2019-02-02T20:33:12.350Z,48.43
2019-02-02T20:35:15.798Z,47.53
2019-02-02T20:37:19.747Z,42.17
2019-02-02T20:39:22.748Z,45.60
2019-02-02T20:41:25.683Z,43.00
2019-02-02T20:43:28.698Z,39.87
2019-02-02T20:45:33.174Z,37.30
2019-02-02T20:47:36.258Z,40.50
2019-02-02T20:49:39.155Z,43.30
2019-02-02T20:51:42.642Z,37.73
2019-02-02T20:53:45.622Z,42.00
2019-02-02T20:55:49.611Z,42.00
2019-02-02T20:57:52.694Z,43.90
2019-02-02T20:59:55.689Z,48.77
2019-02-02T21:01:59.133Z,54.37
2019-02-02T21:04:02.129Z,49.90
2019-02-02T21:06:04.999Z,51.67
2019-02-02T21:08:08.007Z,56.07
2019-02-02T21:10:13.661Z,44.13
2019-02-02T21:12:16.805Z,44.40
2019-02-02T21:14:20.170Z,43.80
2019-02-02T21:16:24.555Z,46.10
2019-02-02T21:18:27.784Z,46.80
2019-02-02T21:20:32.286Z,45.83
2019-02-02T21:22:35.756Z,42.13
2019-02-02T21:24:39.560Z,55.00
2019-02-02T21:26:43.957Z,41.73
2019-02-02T21:28:50.619Z,44.90
2019-02-02T21:30:52.052Z,50.17
2019-02-02T21:32:55.049Z,44.37
2019-02-02T21:34:58.207Z,45.57
2019-02-02T21:37:01.347Z,47.20
2019-02-02T21:39:07.105Z,47.90
2019-02-02T21:41:10.281Z,48.40
2019-02-02T21:43:13.270Z,45.20
2019-02-02T21:45:16.169Z,44.63
2019-02-02T21:47:19.690Z,42.43
2019-02-02T21:49:22.815Z,39.00
2019-02-02T21:51:25.811Z,43.57
2019-02-02T21:53:28.932Z,43.00
2019-02-02T21:55:32.864Z,43.37
2019-02-02T21:57:35.894Z,42.67
2019-02-02T21:59:38.810Z,42.80
2019-02-02T22:01:42.000Z,43.33
2019-02-02T22:03:45.153Z,48.37
2019-02-02T22:05:48.306Z,40.67
2019-02-02T22:07:51.374Z,42.13
2019-02-02T22:09:54.733Z,45.77
2019-02-02T22:11:58.008Z,46.23
2019-02-02T22:14:04.310Z,48.90
2019-02-02T22:16:09.348Z,42.63
2019-02-02T22:18:12.205Z,39.97
2019-02-02T22:20:15.805Z,47.27
2019-02-02T22:22:19.960Z,50.27
2019-02-02T22:24:23.176Z,46.50
2019-02-02T22:26:26.270Z,43.13
2019-02-02T22:28:29.469Z,45.87
2019-02-02T22:30:33.771Z,42.77
2019-02-02T22:32:37.886Z,44.93
2019-02-02T22:34:40.829Z,38.07
2019-02-02T22:36:44.869Z,44.93
2019-02-02T22:38:51.757Z,44.97
2019-02-02T22:40:55.363Z,41.57
2019-02-02T22:42:58.451Z,44.47
2019-02-02T22:45:01.635Z,42.70
2019-02-02T22:47:05.622Z,46.03
2019-02-02T22:49:08.964Z,49.03
2019-02-02T22:51:12.458Z,44.80
2019-02-02T22:53:15.470Z,40.17
2019-02-02T22:55:18.951Z,46.33
2019-02-02T22:57:22.323Z,44.87
2019-02-02T22:59:25.557Z,47.77
2019-02-02T23:01:48.307Z,44.80
2019-02-02T23:04:24.911Z,51.20
2019-02-02T23:06:41.025Z,52.90
2019-02-02T23:09:14.221Z,49.23
2019-02-02T23:11:46.765Z,43.97
2019-02-02T23:14:40.819Z,44.83
2019-02-02T23:16:43.865Z,37.83
2019-02-02T23:18:48.732Z,40.27
2019-02-02T23:20:54.824Z,37.77
2019-02-02T23:22:58.211Z,42.70
2019-02-02T23:25:01.152Z,44.10
2019-02-02T23:27:04.227Z,43.10
2019-02-02T23:29:07.707Z,41.43
2019-02-02T23:31:10.727Z,44.83
2019-02-02T23:33:13.970Z,44.77
2019-02-02T23:35:16.854Z,40.47
2019-02-02T23:37:19.846Z,42.50
2019-02-02T23:39:23.939Z,40.53
2019-02-02T23:41:26.999Z,41.13
2019-02-02T23:43:30.317Z,41.77
2019-02-02T23:45:33.213Z,41.27
2019-02-02T23:47:36.122Z,41.17
2019-02-02T23:49:39.045Z,41.67
2019-02-02T23:51:42.063Z,45.43
2019-02-02T23:53:45.348Z,43.37
2019-02-02T23:55:48.314Z,44.97
2019-02-02T23:57:51.216Z,45.00
2019-02-02T23:59:54.264Z,42.07
